Time;durP1;ratioP1;P1;durP2;ratioP2;P2;SDS_P1;SDS_P2;PMS_P1;PMS_P2;Temp;Humidity;BMP_temperature;BMP_pressure;BME280_temperature;BME280_humidity;BME280_pressure;Samples;Min_cycle;Max_cycle;Signal;HPM_P1;HPM_P2
2021/09/23 03:18:01;;;;;;;54.70;35.30;;;13.30;98.30;;;;;;5171828;22;20516;-81
2021/09/23 03:20:12;;;;;;;52.53;34.53;;;13.30;98.30;;;;;;5097604;23;20429;-84
2021/09/23 03:22:19;;;;;;;50.80;35.03;;;13.30;98.30;;;;;;5096951;23;20427;-84
2021/09/23 03:32:02;;;;;;;57.23;36.83;;;13.20;98.30;;;;;;5087994;23;20460;-82
2021/09/23 03:34:08;;;;;;;48.53;33.83;;;13.20;98.30;;;;;;5096313;23;20425;-83
2021/09/23 03:36:11;;;;;;;49.13;35.10;;;13.30;98.30;;;;;;5096522;23;20953;-83
2021/09/23 03:38:14;;;;;;;51.20;33.07;;;13.30;98.30;;;;;;5096258;23;20442;-83
2021/09/23 03:40:18;;;;;;;46.17;33.70;;;13.30;98.30;;;;;;5096371;22;20455;-83
2021/09/23 03:42:21;;;;;;;46.73;32.50;;;13.40;98.30;;;;;;5095918;23;20462;-82
2021/09/23 03:44:24;;;;;;;45.97;32.73;;;13.40;98.30;;;;;;5088061;23;20504;-83
2021/09/23 03:46:27;;;;;;;55.23;33.43;;;13.40;98.30;;;;;;5095525;23;20526;-83
2021/09/23 03:48:31;;;;;;;47.70;33.10;;;13.40;98.30;;;;;;5094180;23;20819;-84
2021/09/23 03:50:36;;;;;;;50.67;34.80;;;13.40;98.30;;;;;;5096522;23;20438;-84
2021/09/23 03:52:39;;;;;;;49.23;33.47;;;13.40;98.30;;;;;;5096988;23;20427;-82
2021/09/23 03:54:42;;;;;;;54.03;32.07;;;13.40;98.30;;;;;;5096469;23;20928;-83
2021/09/23 03:56:46;;;;;;;43.53;29.50;;;13.30;98.30;;;;;;5095931;23;20419;-82
2021/09/23 03:58:49;;;;;;;43.50;32.97;;;13.30;98.30;;;;;;5095469;23;20481;-84
2021/09/23 04:00:52;;;;;;;48.70;33.83;;;13.30;98.30;;;;;;5095932;23;20426;-83
2021/09/23 04:02:55;;;;;;;58.60;32.87;;;13.30;98.30;;;;;;5096285;23;20451;-83
2021/09/23 04:04:59;;;;;;;48.67;30.33;;;13.20;98.30;;;;;;5096104;23;20427;-82
2021/09/23 04:07:04;;;;;;;52.30;30.90;;;13.20;98.30;;;;;;5095605;23;20470;-84
2021/09/23 04:09:12;;;;;;;47.30;37.70;;;13.20;98.30;;;;;;5096150;23;20911;-83
2021/09/23 04:11:15;;;;;;;46.90;30.97;;;13.20;98.30;;;;;;5096026;23;20504;-83
2021/09/23 04:13:18;;;;;;;49.83;32.50;;;13.20;98.30;;;;;;5096091;23;20416;-83
2021/09/23 04:15:21;;;;;;;48.23;32.53;;;13.20;98.30;;;;;;5096267;23;20427;-83
2021/09/23 04:17:24;;;;;;;49.13;32.27;;;13.20;98.30;;;;;;5112629;22;20439;-83
2021/09/23 04:19:27;;;;;;;49.20;38.57;;;13.20;98.30;;;;;;5199609;22;20915;-83
2021/09/23 04:21:31;;;;;;;49.13;31.57;;;13.10;98.30;;;;;;5204377;22;20426;-84
2021/09/23 04:23:35;;;;;;;50.20;30.00;;;13.20;98.30;;;;;;5208651;22;20430;-85
2021/09/23 04:25:38;;;;;;;47.67;33.03;;;13.20;98.30;;;;;;5210145;22;20423;-84
2021/09/23 04:27:41;;;;;;;47.03;32.30;;;13.20;98.30;;;;;;5209760;22;20446;-86
2021/09/23 04:29:45;;;;;;;46.90;30.50;;;13.20;98.30;;;;;;5210457;22;20425;-85
2021/09/23 04:31:49;;;;;;;47.83;30.47;;;13.20;98.30;;;;;;5209637;22;20449;-84
2021/09/23 04:33:52;;;;;;;52.97;32.97;;;13.20;98.30;;;;;;5209365;22;20422;-83
2021/09/23 04:35:55;;;;;;;55.27;32.77;;;13.20;98.30;;;;;;5208881;22;20423;-82
2021/09/23 04:37:58;;;;;;;54.13;33.40;;;13.20;98.30;;;;;;5209052;22;20438;-84
2021/09/23 04:40:03;;;;;;;55.70;33.23;;;13.20;98.30;;;;;;5210102;22;20447;-85
2021/09/23 04:42:06;;;;;;;51.30;34.20;;;13.20;98.30;;;;;;5208419;22;20419;-83
2021/09/23 04:44:13;;;;;;;52.07;29.27;;;13.20;98.30;;;;;;5207032;22;20446;-84
2021/09/23 04:46:21;;;;;;;54.40;33.00;;;13.20;98.30;;;;;;5209342;22;20452;-85
2021/09/23 04:48:24;;;;;;;48.20;32.27;;;13.20;98.30;;;;;;5209257;22;20465;-85
2021/09/23 04:50:27;;;;;;;46.50;31.43;;;13.20;98.30;;;;;;5207849;22;20423;-84
2021/09/23 04:52:31;;;;;;;51.33;30.60;;;13.30;98.30;;;;;;5206174;22;20419;-85
2021/09/23 04:54:34;;;;;;;48.97;31.60;;;13.30;98.30;;;;;;5204925;22;20494;-84
2021/09/23 04:56:38;;;;;;;52.30;32.97;;;13.30;98.30;;;;;;5204364;22;20411;-83
2021/09/23 04:58:42;;;;;;;44.10;30.53;;;13.30;98.30;;;;;;5203468;22;20943;-84
2021/09/23 05:00:45;;;;;;;47.40;29.27;;;13.40;98.30;;;;;;5204328;22;20798;-84
2021/09/23 05:02:49;;;;;;;46.60;32.03;;;13.40;98.30;;;;;;5204005;22;20415;-83
2021/09/23 05:04:52;;;;;;;52.20;30.87;;;13.40;98.30;;;;;;5200440;22;20919;-83
2021/09/23 05:06:55;;;;;;;48.60;29.73;;;13.40;98.30;;;;;;5199485;22;20853;-84
2021/09/23 05:08:58;;;;;;;49.13;30.73;;;13.40;98.30;;;;;;5199924;22;20523;-83
2021/09/23 05:11:02;;;;;;;47.57;30.10;;;13.40;98.30;;;;;;5200606;22;20427;-86
2021/09/23 05:13:07;;;;;;;43.97;29.20;;;13.40;98.30;;;;;;5200349;22;20429;-84
2021/09/23 05:15:12;;;;;;;44.53;27.53;;;13.40;98.30;;;;;;5200078;22;20430;-85
2021/09/23 05:17:15;;;;;;;45.23;29.03;;;13.40;98.30;;;;;;5199976;22;20423;-86
2021/09/23 05:19:18;;;;;;;47.33;27.00;;;13.40;98.30;;;;;;5200565;22;20430;-84
2021/09/23 05:21:22;;;;;;;54.03;31.03;;;13.40;98.30;;;;;;5201105;22;20423;-84
2021/09/23 05:23:25;;;;;;;47.53;29.10;;;13.40;98.30;;;;;;5200935;22;20477;-84
2021/09/23 05:25:28;;;;;;;48.97;30.67;;;13.40;98.30;;;;;;5201531;22;20756;-84
2021/09/23 05:27:31;;;;;;;52.90;31.60;;;13.40;98.30;;;;;;5200753;22;20879;-84
2021/09/23 05:29:36;;;;;;;41.87;28.80;;;13.50;98.30;;;;;;5200999;22;20422;-83
2021/09/23 05:31:39;;;;;;;49.03;30.37;;;13.50;98.30;;;;;;5200977;22;20935;-83
2021/09/23 05:33:43;;;;;;;51.20;31.23;;;13.40;98.30;;;;;;5201311;22;20457;-84
2021/09/23 05:35:46;;;;;;;42.70;27.37;;;13.50;98.30;;;;;;5200902;22;20427;-84
2021/09/23 05:37:50;;;;;;;43.80;29.23;;;13.50;98.30;;;;;;5200982;22;20443;-87
2021/09/23 05:39:53;;;;;;;50.70;30.20;;;13.50;98.30;;;;;;5201236;22;20423;-84
2021/09/23 05:41:56;;;;;;;47.97;29.03;;;13.50;98.30;;;;;;5201237;22;20798;-85
2021/09/23 05:44:00;;;;;;;43.73;26.83;;;13.60;98.30;;;;;;5201057;22;20446;-83
2021/09/23 05:46:05;;;;;;;45.97;30.17;;;13.60;98.30;;;;;;5201315;22;20763;-84
2021/09/23 05:48:08;;;;;;;44.53;29.87;;;13.60;98.30;;;;;;5200227;22;20791;-83
2021/09/23 05:50:13;;;;;;;46.27;28.27;;;13.60;98.30;;;;;;5201103;22;20427;-83
2021/09/23 05:52:17;;;;;;;45.83;28.83;;;13.60;98.30;;;;;;5200502;22;20496;-84
2021/09/23 05:54:20;;;;;;;49.20;31.73;;;13.60;98.30;;;;;;5200064;22;20422;-84
2021/09/23 05:56:23;;;;;;;73.03;44.30;;;13.60;98.30;;;;;;5200232;22;20419;-83
2021/09/23 05:58:27;;;;;;;101.47;64.70;;;13.50;98.30;;;;;;5200450;22;20931;-83
2021/09/23 06:00:30;;;;;;;104.30;65.10;;;13.60;98.30;;;;;;5200469;22;20903;-86
2021/09/23 06:02:34;;;;;;;89.10;52.83;;;13.60;98.30;;;;;;5201493;22;20926;-84
2021/09/23 06:04:38;;;;;;;84.80;52.23;;;13.60;98.30;;;;;;5202606;22;20472;-84
2021/09/23 06:06:42;;;;;;;65.30;39.57;;;13.70;98.30;;;;;;5200442;22;20451;-86
2021/09/23 06:08:45;;;;;;;55.03;35.23;;;13.60;98.30;;;;;;5201155;22;20453;-83
2021/09/23 06:10:48;;;;;;;58.77;33.80;;;13.70;98.30;;;;;;5200633;22;20423;-87
2021/09/23 06:12:51;;;;;;;50.60;31.30;;;13.70;98.30;;;;;;5199898;22;20486;-84
2021/09/23 06:14:54;;;;;;;42.30;27.07;;;13.80;98.30;;;;;;5201578;22;20472;-84
2021/09/23 06:16:57;;;;;;;45.73;28.50;;;13.80;98.30;;;;;;5202547;22;20469;-83
2021/09/23 06:19:03;;;;;;;49.63;29.50;;;13.80;98.30;;;;;;5201724;22;20447;-85
2021/09/23 06:21:07;;;;;;;48.27;29.30;;;13.80;98.30;;;;;;5203354;22;20907;-83
2021/09/23 06:23:10;;;;;;;39.97;26.30;;;13.80;98.30;;;;;;5202751;22;20426;-83
2021/09/23 06:25:13;;;;;;;50.73;30.33;;;13.80;98.30;;;;;;5202745;22;20741;-84
2021/09/23 06:27:17;;;;;;;46.83;28.63;;;13.80;98.30;;;;;;5202327;22;20779;-85
2021/09/23 06:29:20;;;;;;;41.60;26.60;;;13.80;98.30;;;;;;5203032;22;20423;-85
2021/09/23 06:31:24;;;;;;;42.73;26.80;;;13.80;98.30;;;;;;5203478;22;20419;-83
2021/09/23 06:33:27;;;;;;;61.33;28.90;;;13.80;98.30;;;;;;5204486;22;20422;-82
2021/09/23 06:35:32;;;;;;;46.37;28.17;;;13.90;98.30;;;;;;5203009;22;20429;-85
2021/09/23 06:37:35;;;;;;;39.73;26.73;;;13.90;98.30;;;;;;5203375;22;20439;-85
2021/09/23 06:39:40;;;;;;;46.10;26.10;;;13.90;98.30;;;;;;5207500;22;20429;-84
2021/09/23 06:41:43;;;;;;;41.40;27.10;;;13.90;98.30;;;;;;5204148;22;20423;-84
2021/09/23 06:43:48;;;;;;;42.60;26.73;;;13.90;98.30;;;;;;5203282;22;20430;-84
2021/09/23 06:45:51;;;;;;;39.37;24.77;;;13.90;98.30;;;;;;5203914;22;20461;-85
2021/09/23 06:47:56;;;;;;;43.60;28.00;;;13.90;98.30;;;;;;5202826;22;20442;-84
2021/09/23 06:50:02;;;;;;;37.50;25.23;;;13.90;98.30;;;;;;5203574;22;20426;-83
2021/09/23 06:52:07;;;;;;;36.30;26.10;;;13.90;98.30;;;;;;5203022;22;20423;-83
2021/09/23 06:54:10;;;;;;;51.30;27.20;;;13.90;98.30;;;;;;5203127;22;20423;-83
2021/09/23 06:56:14;;;;;;;37.33;25.57;;;13.90;98.30;;;;;;5203372;22;20423;-84
2021/09/23 06:58:17;;;;;;;41.00;23.20;;;13.90;98.30;;;;;;5202768;22;20438;-85
2021/09/23 07:00:20;;;;;;;40.33;24.73;;;13.90;98.30;;;;;;5203266;22;20449;-83
2021/09/23 07:02:23;;;;;;;38.67;26.50;;;13.90;98.30;;;;;;5203289;22;20422;-84
2021/09/23 07:04:27;;;;;;;41.67;26.80;;;13.90;98.30;;;;;;5203246;22;20489;-84
2021/09/23 07:06:31;;;;;;;43.47;26.37;;;13.90;98.30;;;;;;5203045;22;20419;-84
2021/09/23 07:08:35;;;;;;;44.63;25.33;;;13.90;98.30;;;;;;5203113;22;20454;-84
2021/09/23 07:10:38;;;;;;;44.00;27.50;;;13.90;98.30;;;;;;5202542;22;20423;-84
2021/09/23 07:12:41;;;;;;;37.40;25.10;;;14.00;98.30;;;;;;5202186;22;20484;-83
2021/09/23 07:14:44;;;;;;;36.47;23.87;;;14.00;98.30;;;;;;5202490;22;20422;-84
2021/09/23 07:16:47;;;;;;;45.00;26.13;;;14.00;98.30;;;;;;5203417;22;20480;-83
2021/09/23 07:18:51;;;;;;;39.67;24.83;;;14.00;98.30;;;;;;5204362;22;20446;-84
2021/09/23 07:20:55;;;;;;;40.80;25.20;;;14.00;98.30;;;;;;5204380;22;20429;-83
2021/09/23 07:22:58;;;;;;;36.93;25.17;;;14.10;98.30;;;;;;5204423;22;20423;-85
2021/09/23 07:25:05;;;;;;;44.63;25.53;;;14.10;98.30;;;;;;5204348;22;20422;-86
2021/09/23 07:27:08;;;;;;;39.50;27.20;;;14.20;98.30;;;;;;5204213;22;20411;-83
2021/09/23 07:29:15;;;;;;;38.50;25.87;;;14.20;98.30;;;;;;5204660;22;20450;-83
2021/09/23 07:31:18;;;;;;;32.27;21.90;;;14.30;98.30;;;;;;5204534;22;20418;-85
2021/09/23 07:33:21;;;;;;;36.23;24.30;;;14.30;98.30;;;;;;5204478;22;20442;-84
2021/09/23 07:35:24;;;;;;;39.70;25.07;;;14.30;98.30;;;;;;5204541;22;20480;-84
2021/09/23 07:37:27;;;;;;;39.57;25.93;;;14.30;98.30;;;;;;5204255;22;20447;-87
2021/09/23 07:39:31;;;;;;;40.80;25.63;;;14.30;98.30;;;;;;5204701;22;20419;-84
2021/09/23 07:41:37;;;;;;;35.77;22.93;;;14.40;98.30;;;;;;5204974;22;20484;-87
2021/09/23 07:43:40;;;;;;;38.97;25.17;;;14.40;98.30;;;;;;5204267;22;20465;-85
2021/09/23 07:45:43;;;;;;;40.50;25.20;;;14.40;98.30;;;;;;5204629;22;20427;-83
2021/09/23 07:47:47;;;;;;;32.10;23.93;;;14.40;98.30;;;;;;5204516;22;20442;-86
2021/09/23 07:49:50;;;;;;;38.43;26.10;;;14.40;98.30;;;;;;5204891;22;20462;-84
2021/09/23 07:51:54;;;;;;;38.00;23.03;;;14.50;98.30;;;;;;5204800;22;20423;-84
2021/09/23 07:53:57;;;;;;;37.30;24.77;;;14.50;98.30;;;;;;5205552;22;20498;-84
2021/09/23 07:56:00;;;;;;;34.77;24.30;;;14.50;98.30;;;;;;5204901;22;20430;-85
2021/09/23 07:58:05;;;;;;;37.80;22.90;;;14.60;98.30;;;;;;5204681;22;20442;-84
2021/09/23 08:00:11;;;;;;;41.47;25.40;;;14.60;98.30;;;;;;5203369;22;20431;-84
2021/09/23 08:02:14;;;;;;;44.23;24.67;;;14.60;98.30;;;;;;5205183;22;20472;-83
2021/09/23 08:04:18;;;;;;;41.60;24.20;;;14.60;98.30;;;;;;5205405;22;20422;-83
2021/09/23 08:06:21;;;;;;;36.90;25.90;;;14.60;98.30;;;;;;5204778;22;20446;-84
2021/09/23 08:08:25;;;;;;;38.63;26.40;;;14.60;98.30;;;;;;5205088;22;20832;-84
2021/09/23 08:10:28;;;;;;;34.17;25.10;;;14.60;98.30;;;;;;5204759;22;20423;-83
2021/09/23 08:12:31;;;;;;;37.27;23.17;;;14.70;98.30;;;;;;5205573;22;20445;-83
2021/09/23 08:14:36;;;;;;;39.63;24.17;;;14.70;98.30;;;;;;5204932;22;20488;-84
2021/09/23 08:16:39;;;;;;;41.50;26.90;;;14.60;98.30;;;;;;5204478;22;20422;-83
2021/09/23 08:18:42;;;;;;;37.13;25.07;;;14.70;98.30;;;;;;5204661;22;20446;-84
2021/09/23 08:20:45;;;;;;;38.70;26.53;;;14.70;98.30;;;;;;5205277;22;21126;-83
2021/09/23 08:22:49;;;;;;;45.80;26.70;;;14.70;98.30;;;;;;5204308;22;20802;-83
2021/09/23 08:24:52;;;;;;;36.37;23.97;;;14.70;98.30;;;;;;5206893;22;20423;-83
2021/09/23 08:26:55;;;;;;;39.67;23.33;;;14.80;98.30;;;;;;5199425;22;20427;-83
2021/09/23 08:28:58;;;;;;;31.53;21.67;;;14.80;98.30;;;;;;5203592;22;20947;-84
2021/09/23 08:31:04;;;;;;;45.00;24.43;;;14.80;98.30;;;;;;5212043;22;20418;-84
2021/09/23 08:33:07;;;;;;;38.30;23.47;;;14.80;98.30;;;;;;5212668;22;20423;-83
2021/09/23 08:35:10;;;;;;;34.67;24.07;;;14.80;98.30;;;;;;5212078;22;20423;-83
2021/09/23 08:37:15;;;;;;;37.00;24.67;;;14.90;98.30;;;;;;5212112;22;20426;-83
2021/09/23 08:39:22;;;;;;;36.97;22.37;;;14.90;98.30;;;;;;5211988;22;20900;-83
2021/09/23 08:41:25;;;;;;;37.50;23.80;;;15.00;98.30;;;;;;5210935;22;20423;-83
2021/09/23 08:43:29;;;;;;;36.33;22.70;;;15.00;98.30;;;;;;5210659;22;20427;-83
2021/09/23 08:45:32;;;;;;;37.77;23.77;;;15.10;98.30;;;;;;5206365;22;20423;-84
2021/09/23 08:47:37;;;;;;;35.57;23.40;;;15.20;98.30;;;;;;5204113;22;20439;-85
2021/09/23 08:49:40;;;;;;;28.30;20.53;;;15.20;98.30;;;;;;5204194;22;20438;-86
2021/09/23 08:51:43;;;;;;;31.33;21.80;;;15.20;98.30;;;;;;5204229;22;20472;-85
2021/09/23 08:53:46;;;;;;;31.50;21.13;;;15.20;98.30;;;;;;5204087;22;20430;-84
2021/09/23 08:55:50;;;;;;;38.07;23.97;;;15.30;98.30;;;;;;5204169;22;20429;-84
2021/09/23 08:57:54;;;;;;;34.43;22.73;;;15.30;98.30;;;;;;5203955;22;20826;-84
2021/09/23 08:59:58;;;;;;;31.60;20.33;;;15.30;98.30;;;;;;5204182;22;20418;-84
2021/09/23 09:02:01;;;;;;;29.80;20.27;;;15.30;98.30;;;;;;5204090;22;20429;-85
2021/09/23 09:04:07;;;;;;;26.63;19.10;;;15.40;98.30;;;;;;5202473;22;20427;-83
2021/09/23 09:06:13;;;;;;;29.20;20.03;;;15.50;98.30;;;;;;5202848;22;20433;-83
2021/09/23 09:08:21;;;;;;;29.00;20.10;;;15.50;98.30;;;;;;5202925;22;20508;-84
2021/09/23 09:10:25;;;;;;;24.60;17.10;;;15.50;98.30;;;;;;5202605;22;20438;-86
2021/09/23 09:12:29;;;;;;;34.10;19.60;;;15.60;98.30;;;;;;5203215;22;20749;-84
2021/09/23 09:14:32;;;;;;;30.07;19.40;;;15.60;98.30;;;;;;5203608;22;20419;-86
2021/09/23 09:16:38;;;;;;;29.10;19.57;;;15.60;98.30;;;;;;5203259;22;20756;-83
2021/09/23 16:47:08;;;;;;;19.27;6.20;;;15.60;98.30;;;;;;5218550;22;20967;-85
2021/09/23 16:53:03;;;;;;;22.03;4.93;;;15.70;98.30;;;;;;5201451;22;20382;-83
2021/09/23 17:22:39;;;;;;;11.67;4.13;;;15.50;98.30;;;;;;5114662;23;20745;-81
2021/09/23 17:34:11;;;;;;;26.00;6.23;;;15.50;98.30;;;;;;5190845;22;20900;-81
2021/09/23 17:36:20;;;;;;;15.10;4.63;;;15.50;98.30;;;;;;5200679;22;21181;-81
2021/09/23 17:38:25;;;;;;;20.00;4.60;;;15.40;98.30;;;;;;5201201;22;20986;-81
2021/09/23 17:40:31;;;;;;;16.13;4.90;;;15.30;98.30;;;;;;5200837;22;20657;-81
2021/09/23 17:42:36;;;;;;;25.13;6.13;;;15.20;98.30;;;;;;5201091;22;20423;-81
2021/09/23 17:44:40;;;;;;;22.30;4.93;;;15.20;98.30;;;;;;5200548;22;20861;-81
2021/09/23 17:46:51;;;;;;;14.37;5.27;;;15.20;98.30;;;;;;5201100;22;20808;-81
2021/09/23 17:48:57;;;;;;;17.07;5.13;;;15.20;98.30;;;;;;5200536;22;20477;-81
2021/09/23 17:51:02;;;;;;;19.07;5.30;;;15.20;98.30;;;;;;5199739;22;20500;-80
2021/09/23 17:53:05;;;;;;;15.90;4.53;;;15.10;98.30;;;;;;5199869;22;20500;-80
2021/09/23 17:55:11;;;;;;;16.03;4.60;;;15.10;98.30;;;;;;5200025;22;20426;-80
2021/09/23 17:57:14;;;;;;;25.57;5.03;;;15.10;98.30;;;;;;5199013;22;20476;-80
2021/09/23 18:02:27;;;;;;;14.77;4.07;;;15.10;98.30;;;;;;5176826;22;20917;-82
2021/09/23 18:16:51;;;;;;;14.10;4.93;;;15.00;98.30;;;;;;5201083;22;20425;-83
2021/09/23 18:19:07;;;;;;;26.60;5.37;;;15.00;98.30;;;;;;5199800;22;20443;-83
2021/09/23 18:21:11;;;;;;;20.10;5.10;;;15.00;98.30;;;;;;5200190;22;20418;-82
2021/09/23 18:23:17;;;;;;;13.47;4.00;;;15.00;98.30;;;;;;5200401;22;20426;-83
2021/09/23 18:25:24;;;;;;;12.30;3.80;;;15.00;98.30;;;;;;5199407;22;20430;-82
2021/09/23 18:27:28;;;;;;;17.67;5.00;;;15.00;98.30;;;;;;5200084;22;20936;-82
2021/09/23 18:29:34;;;;;;;28.23;5.03;;;15.00;98.30;;;;;;5200825;22;20884;-82
2021/09/23 18:31:51;;;;;;;29.90;4.97;;;15.00;98.30;;;;;;5192567;22;20982;-81
2021/09/23 18:33:56;;;;;;;19.47;5.57;;;15.00;98.30;;;;;;5201548;22;20426;-82
2021/09/23 18:35:59;;;;;;;17.30;5.00;;;14.90;98.30;;;;;;5201160;22;20477;-82
2021/09/23 18:38:02;;;;;;;23.23;5.30;;;14.90;98.30;;;;;;5202532;22;20447;-83
2021/09/23 18:40:07;;;;;;;18.33;4.67;;;14.90;98.30;;;;;;5201777;22;20419;-82
2021/09/23 18:42:10;;;;;;;19.23;5.23;;;14.90;98.30;;;;;;5201508;22;20457;-82
2021/09/23 18:44:14;;;;;;;18.57;5.23;;;14.90;98.30;;;;;;5200978;22;20422;-81
2021/09/23 18:46:21;;;;;;;18.40;5.90;;;14.80;98.30;;;;;;5192077;22;20989;-82
2021/09/23 18:48:24;;;;;;;22.83;7.20;;;14.90;98.30;;;;;;5201316;22;20505;-81
2021/09/23 18:50:28;;;;;;;23.27;5.17;;;14.90;98.30;;;;;;5192340;22;20451;-82
2021/09/23 18:52:34;;;;;;;15.07;5.40;;;14.90;98.30;;;;;;5191754;22;20427;-82
2021/09/23 18:54:39;;;;;;;25.10;6.20;;;14.80;98.30;;;;;;5200450;22;21022;-82
2021/09/23 18:56:42;;;;;;;26.40;5.87;;;14.80;98.30;;;;;;5201468;22;20419;-83
2021/09/23 18:58:48;;;;;;;28.97;6.60;;;14.70;98.30;;;;;;5200418;22;20516;-82
2021/09/23 19:00:54;;;;;;;34.13;8.37;;;14.70;98.30;;;;;;5192323;22;20740;-83
2021/09/23 19:02:59;;;;;;;35.03;6.80;;;14.70;98.30;;;;;;5200828;22;20423;-81
2021/09/23 19:05:03;;;;;;;25.63;7.07;;;14.70;98.30;;;;;;5200842;22;20446;-81
2021/09/23 19:07:06;;;;;;;27.17;6.33;;;14.70;98.30;;;;;;5200967;22;20415;-82
2021/09/23 19:09:10;;;;;;;23.87;6.23;;;14.60;98.30;;;;;;5200116;22;20439;-82
2021/09/23 19:11:13;;;;;;;33.17;8.20;;;14.50;98.30;;;;;;5192355;22;20520;-81
2021/09/23 19:13:16;;;;;;;26.13;7.50;;;14.50;98.30;;;;;;5201273;22;20453;-81
2021/09/23 19:15:20;;;;;;;27.20;6.70;;;14.50;98.30;;;;;;5192985;22;20423;-80
2021/09/23 19:17:23;;;;;;;29.17;6.40;;;14.40;98.30;;;;;;5201042;22;20506;-80
2021/09/23 19:19:28;;;;;;;24.00;6.87;;;14.40;98.30;;;;;;5202029;22;20779;-80
2021/09/23 19:21:31;;;;;;;21.03;6.63;;;14.40;98.30;;;;;;5192413;22;20427;-80
2021/09/23 19:23:34;;;;;;;21.97;7.97;;;14.30;98.30;;;;;;5192198;22;20430;-80
2021/09/23 19:25:37;;;;;;;25.90;6.30;;;14.30;98.30;;;;;;5201208;22;20415;-80
2021/09/23 19:27:40;;;;;;;25.20;6.60;;;14.30;98.30;;;;;;5200262;22;21267;-80
2021/09/23 19:29:43;;;;;;;29.73;6.77;;;14.30;98.30;;;;;;5200556;22;20453;-80
2021/09/23 19:31:46;;;;;;;30.50;6.07;;;14.30;98.30;;;;;;5192126;22;20442;-80
2021/09/23 19:33:50;;;;;;;26.83;6.57;;;14.20;98.30;;;;;;5192099;22;20462;-80
2021/09/23 19:35:54;;;;;;;33.57;7.47;;;14.30;98.30;;;;;;5200146;22;20501;-80
2021/09/23 19:38:00;;;;;;;27.87;8.77;;;14.20;98.30;;;;;;5200104;22;20443;-80
2021/09/23 19:40:04;;;;;;;30.23;7.10;;;14.20;98.30;;;;;;5201116;22;20487;-80
2021/09/23 19:42:08;;;;;;;36.83;6.80;;;14.20;98.30;;;;;;5192666;22;20760;-80
2021/09/23 19:44:11;;;;;;;21.40;6.10;;;14.20;98.30;;;;;;5192586;22;20805;-80
2021/09/23 19:46:14;;;;;;;24.20;6.83;;;14.10;98.30;;;;;;5192281;22;20924;-80
2021/09/23 19:48:17;;;;;;;24.50;6.77;;;14.10;98.30;;;;;;5192490;22;20443;-80
2021/09/23 19:50:21;;;;;;;29.57;8.17;;;14.10;98.30;;;;;;5192523;22;20430;-80
2021/09/23 19:52:26;;;;;;;27.53;8.17;;;14.00;98.30;;;;;;5200608;22;20539;-80
2021/09/23 19:54:36;;;;;;;18.70;6.00;;;14.00;98.30;;;;;;5201559;22;20880;-81
2021/09/23 19:56:39;;;;;;;39.97;7.10;;;13.90;98.30;;;;;;5202020;22;20906;-80
2021/09/23 19:58:45;;;;;;;22.00;7.03;;;13.90;98.30;;;;;;5192293;22;20450;-80
2021/09/23 20:00:49;;;;;;;23.93;7.50;;;13.90;98.30;;;;;;5192499;22;20427;-80
2021/09/23 20:02:52;;;;;;;25.37;7.33;;;13.90;98.30;;;;;;5192903;22;20461;-80
2021/09/23 20:04:55;;;;;;;21.83;6.27;;;13.80;98.30;;;;;;5192353;22;21227;-80
2021/09/23 20:06:59;;;;;;;30.33;6.20;;;13.80;98.30;;;;;;5200949;22;20473;-80
2021/09/23 20:09:03;;;;;;;21.03;5.60;;;13.80;98.30;;;;;;5200432;22;20497;-80
2021/09/23 20:11:07;;;;;;;19.23;6.13;;;13.80;98.30;;;;;;5191994;22;20815;-80
2021/09/23 20:13:10;;;;;;;38.80;7.57;;;13.80;98.30;;;;;;5200348;22;20423;-80
2021/09/23 20:15:16;;;;;;;20.80;6.10;;;13.80;98.30;;;;;;5191755;22;20492;-80
2021/09/23 20:17:20;;;;;;;25.03;5.47;;;13.70;98.30;;;;;;5200120;22;20409;-80
2021/09/23 20:19:23;;;;;;;17.90;5.87;;;13.70;98.30;;;;;;5191739;22;20443;-80
2021/09/23 20:21:26;;;;;;;27.00;5.50;;;13.80;98.30;;;;;;5200459;22;20442;-80
2021/09/23 20:23:29;;;;;;;26.13;5.80;;;13.70;98.30;;;;;;5200514;22;20488;-80
2021/09/23 20:25:35;;;;;;;17.73;5.43;;;13.70;98.30;;;;;;5191905;22;20427;-80
2021/09/23 20:27:39;;;;;;;23.80;6.60;;;13.60;98.30;;;;;;5192127;22;20435;-80
2021/09/23 20:29:42;;;;;;;25.63;5.57;;;13.60;98.30;;;;;;5192217;22;20475;-79
2021/09/23 20:31:45;;;;;;;19.90;5.00;;;13.60;98.30;;;;;;5200241;22;20479;-79
2021/09/23 20:33:49;;;;;;;26.63;6.67;;;13.60;98.30;;;;;;5191239;22;20423;-79
2021/09/23 20:35:52;;;;;;;23.43;5.70;;;13.60;98.30;;;;;;5200226;22;20423;-79
2021/09/23 20:37:56;;;;;;;17.70;5.20;;;13.60;98.30;;;;;;5191240;22;20442;-79
2021/09/23 20:39:59;;;;;;;19.37;5.43;;;13.60;98.30;;;;;;5200388;22;20420;-80
2021/09/23 20:42:05;;;;;;;16.63;5.43;;;13.60;98.30;;;;;;5200488;22;20425;-80
2021/09/23 20:44:08;;;;;;;17.57;5.40;;;13.60;98.30;;;;;;5200806;22;20407;-80
2021/09/23 20:46:11;;;;;;;34.40;6.43;;;13.50;98.30;;;;;;5200904;22;21034;-80
2021/09/23 20:48:15;;;;;;;26.73;5.23;;;13.40;98.30;;;;;;5200533;22;20470;-80
2021/09/23 20:50:18;;;;;;;28.87;6.23;;;13.40;98.30;;;;;;5200765;22;20427;-80
2021/09/23 20:52:21;;;;;;;30.63;5.60;;;13.40;98.30;;;;;;5201078;22;20442;-80
2021/09/23 20:54:25;;;;;;;23.10;5.27;;;13.50;98.30;;;;;;5200289;22;20937;-81
2021/09/23 20:56:29;;;;;;;34.80;9.90;;;13.50;98.30;;;;;;5198834;22;20429;-80
2021/09/23 20:58:54;;;;;;;22.03;7.07;;;13.50;98.30;;;;;;5196550;22;20482;-80
2021/09/23 21:00:57;;;;;;;24.30;5.20;;;13.50;98.30;;;;;;5197967;22;20430;-79
2021/09/23 21:03:10;;;;;;;28.03;5.10;;;13.50;98.30;;;;;;5197881;22;20462;-80
2021/09/23 21:05:20;;;;;;;23.23;5.87;;;13.60;98.30;;;;;;5198616;22;20422;-81
2021/09/23 21:07:23;;;;;;;22.97;6.27;;;13.50;98.30;;;;;;5198307;22;20978;-81
2021/09/23 21:09:27;;;;;;;29.90;5.50;;;13.50;98.30;;;;;;5189556;22;20431;-80
2021/09/23 21:11:35;;;;;;;24.20;6.70;;;13.50;98.30;;;;;;5198225;22;20473;-80
2021/09/23 21:13:38;;;;;;;31.23;10.30;;;13.50;98.30;;;;;;5191813;22;20432;-80
2021/09/23 21:15:43;;;;;;;23.70;5.73;;;13.40;98.30;;;;;;5191537;22;20430;-80
2021/09/23 21:17:47;;;;;;;26.07;5.27;;;13.40;98.30;;;;;;5191607;22;20829;-81
2021/09/23 21:21:53;;;;;;;25.90;5.60;;;13.60;98.30;;;;;;5199356;22;20774;-81
2021/09/23 21:23:56;;;;;;;29.20;8.87;;;13.60;98.30;;;;;;5199833;22;20465;-82
2021/09/23 21:25:59;;;;;;;34.67;13.70;;;13.70;98.30;;;;;;5199759;22;20451;-81
2021/09/23 21:28:02;;;;;;;19.87;8.57;;;13.70;98.30;;;;;;5199493;22;20432;-82
2021/09/23 21:30:07;;;;;;;23.53;4.73;;;13.70;98.30;;;;;;5191024;22;20490;-82
2021/09/23 21:32:12;;;;;;;26.97;7.53;;;13.70;98.30;;;;;;5200432;22;20744;-81
2021/09/23 21:34:15;;;;;;;26.43;5.00;;;13.70;98.30;;;;;;5199570;22;20426;-82
2021/09/23 21:36:18;;;;;;;24.57;6.50;;;13.80;98.30;;;;;;5199760;22;20419;-82
2021/09/23 21:38:21;;;;;;;18.10;4.17;;;13.80;98.30;;;;;;5199326;22;20453;-82
2021/09/23 21:40:27;;;;;;;20.27;5.63;;;13.80;98.30;;;;;;5200071;22;20415;-81
2021/09/23 21:42:30;;;;;;;17.80;6.10;;;13.80;98.30;;;;;;5199215;22;20450;-81
2021/09/23 21:44:34;;;;;;;14.90;4.30;;;13.90;98.30;;;;;;5199948;22;20426;-82
2021/09/23 21:46:37;;;;;;;17.53;5.20;;;13.90;98.30;;;;;;5200728;22;20850;-82
2021/09/23 21:48:41;;;;;;;19.87;5.37;;;13.90;98.30;;;;;;5199588;22;20446;-81
2021/09/23 21:50:45;;;;;;;18.10;5.33;;;13.80;98.30;;;;;;5200656;22;20488;-83
2021/09/23 21:52:49;;;;;;;22.13;4.90;;;13.90;98.30;;;;;;5199624;22;20466;-82
2021/09/23 21:54:52;;;;;;;22.53;6.10;;;13.90;98.30;;;;;;5200134;22;20426;-81
2021/09/23 21:56:55;;;;;;;19.00;4.77;;;13.90;98.30;;;;;;5191691;22;20427;-81
2021/09/23 21:58:58;;;;;;;15.57;4.97;;;13.90;98.30;;;;;;5199411;22;20488;-82
2021/09/23 22:01:01;;;;;;;17.97;4.40;;;13.90;98.30;;;;;;5191795;22;20454;-82
2021/09/23 22:03:05;;;;;;;19.03;4.10;;;13.90;98.30;;;;;;5199530;22;20457;-82
2021/09/23 22:05:10;;;;;;;24.10;5.20;;;13.90;98.30;;;;;;5191487;22;20427;-82
2021/09/23 22:07:15;;;;;;;19.03;4.90;;;13.90;98.30;;;;;;5199729;22;20422;-82
2021/09/23 22:09:19;;;;;;;23.27;5.10;;;13.90;98.30;;;;;;5199521;22;20449;-81
2021/09/23 22:11:23;;;;;;;18.50;5.00;;;13.90;98.30;;;;;;5191507;22;20434;-82
2021/09/23 22:13:26;;;;;;;14.10;4.17;;;13.90;98.30;;;;;;5191245;22;20446;-81
2021/09/23 22:15:30;;;;;;;18.53;4.47;;;13.90;98.30;;;;;;5190796;22;20423;-81
2021/09/23 22:17:33;;;;;;;20.53;4.80;;;13.80;98.30;;;;;;5190916;22;20427;-81
2021/09/23 22:19:37;;;;;;;14.90;4.33;;;13.90;98.30;;;;;;5190924;22;20447;-81
2021/09/23 22:21:41;;;;;;;22.07;4.93;;;13.90;98.30;;;;;;5199433;22;20810;-81
2021/09/23 22:23:44;;;;;;;14.07;4.47;;;13.90;98.30;;;;;;5191261;22;20473;-81